createdAt,value
2023-05-24T00:00:13.377Z,4.00
2023-05-24T00:02:57.301Z,3.72
2023-05-24T00:05:41.058Z,3.70
2023-05-24T00:08:15.424Z,3.85
2023-05-24T00:10:57.563Z,4.30
2023-05-24T00:13:30.460Z,4.20
2023-05-24T00:16:12.717Z,3.90
2023-05-24T00:18:47.226Z,4.10
2023-05-24T00:21:29.651Z,3.70
2023-05-24T00:24:02.289Z,3.98
2023-05-24T00:26:46.164Z,3.40
2023-05-24T00:29:18.680Z,4.70
2023-05-24T00:32:02.374Z,3.60
2023-05-24T00:34:35.612Z,3.40
2023-05-24T00:37:20.263Z,4.33
2023-05-24T00:40:05.112Z,3.75
2023-05-24T00:42:37.717Z,5.13
2023-05-24T00:45:20.363Z,3.72
2023-05-24T00:47:54.293Z,6.40
2023-05-24T00:50:36.651Z,4.70
2023-05-24T00:53:10.742Z,5.12
2023-05-24T00:55:56.262Z,5.53
2023-05-24T00:58:31.282Z,4.08
2023-05-24T01:01:16.676Z,5.65
2023-05-24T01:04:01.022Z,5.20
2023-05-24T01:06:40.714Z,3.98
2023-05-24T01:09:29.084Z,5.35
2023-05-24T01:12:31.947Z,4.85
2023-05-24T01:15:18.604Z,5.10
2023-05-24T01:18:15.796Z,4.45
2023-05-24T01:20:50.727Z,4.00
2023-05-24T01:23:55.003Z,3.80
2023-05-24T01:26:45.642Z,4.08
2023-05-24T01:29:30.110Z,3.75
2023-05-24T01:32:04.519Z,4.53
2023-05-24T01:34:48.906Z,4.62
2023-05-24T01:37:21.487Z,5.15
2023-05-24T01:40:06.567Z,5.25
2023-05-24T01:42:52.673Z,4.37
2023-05-24T01:45:38.436Z,4.17
2023-05-24T01:48:18.317Z,4.08
2023-05-24T01:51:04.056Z,4.00
2023-05-24T01:53:39.374Z,4.10
2023-05-24T01:56:22.966Z,4.25
2023-05-24T01:58:59.863Z,4.60
2023-05-24T02:01:42.745Z,4.15
2023-05-24T02:04:15.817Z,4.12
2023-05-24T02:07:00.976Z,4.45
2023-05-24T02:09:34.251Z,4.25
2023-05-24T02:12:18.094Z,4.25
2023-05-24T02:14:51.254Z,3.45
2023-05-24T02:17:36.054Z,3.50
2023-05-24T02:20:09.771Z,4.70
2023-05-24T02:22:54.887Z,4.60
2023-05-24T02:25:29.165Z,3.90
2023-05-24T02:28:13.361Z,4.30
2023-05-24T02:30:46.128Z,4.40
2023-05-24T02:33:30.351Z,4.12
2023-05-24T02:36:13.122Z,4.65
2023-05-24T02:38:46.038Z,5.25
2023-05-24T02:41:19.037Z,5.00
2023-05-24T02:44:03.654Z,4.70
2023-05-24T02:46:36.456Z,4.87
2023-05-24T02:49:18.578Z,4.47
2023-05-24T02:52:02.662Z,4.28
2023-05-24T02:54:46.921Z,4.33
2023-05-24T02:57:19.739Z,4.28
2023-05-24T03:00:02.327Z,4.60
2023-05-24T03:02:38.608Z,3.77
2023-05-24T03:05:21.484Z,4.60
2023-05-24T03:07:54.141Z,4.15
2023-05-24T03:10:38.405Z,3.80
2023-05-24T03:13:12.172Z,4.22
2023-05-24T03:15:54.230Z,3.67
2023-05-24T03:18:38.486Z,3.60
2023-05-24T03:21:11.665Z,3.85
2023-05-24T03:23:58.138Z,3.95
2023-05-24T03:26:43.583Z,3.35
2023-05-24T03:29:16.136Z,3.72
2023-05-24T03:32:00.296Z,3.65
2023-05-24T03:34:47.025Z,3.80
2023-05-24T03:37:31.126Z,3.80
2023-05-24T03:40:05.625Z,4.00
2023-05-24T03:43:09.016Z,4.12
2023-05-24T03:45:52.897Z,4.62
2023-05-24T03:48:25.695Z,4.47
2023-05-24T03:51:10.099Z,4.08
2023-05-24T03:53:53.823Z,3.17
2023-05-24T03:56:27.339Z,3.80
2023-05-24T03:59:11.446Z,3.37
2023-05-24T04:01:44.590Z,4.17
2023-05-24T04:04:27.040Z,3.98
2023-05-24T04:07:13.912Z,5.35
2023-05-24T04:09:56.473Z,4.35
2023-05-24T04:12:28.956Z,4.03
2023-05-24T04:15:01.934Z,4.70
2023-05-24T04:17:47.113Z,4.85
2023-05-24T04:20:20.805Z,5.05
2023-05-24T04:23:04.205Z,4.33
2023-05-24T04:25:46.394Z,4.00
2023-05-24T04:28:19.200Z,5.20
2023-05-24T04:30:53.993Z,3.90
2023-05-24T04:33:39.793Z,4.40
2023-05-24T04:36:26.268Z,4.35
2023-05-24T04:39:02.005Z,4.15
2023-05-24T04:41:44.595Z,3.95
2023-05-24T04:44:17.676Z,4.05
2023-05-24T04:47:01.120Z,5.40
2023-05-24T04:49:33.803Z,5.10
2023-05-24T04:52:17.970Z,4.60
2023-05-24T04:55:00.206Z,4.85
2023-05-24T04:57:34.647Z,5.15
2023-05-24T05:00:18.804Z,5.20
2023-05-24T05:02:52.546Z,4.37
2023-05-24T05:05:25.347Z,4.97
2023-05-24T05:08:09.871Z,5.00
2023-05-24T05:10:42.830Z,4.30
2023-05-24T05:13:25.322Z,4.30
2023-05-24T05:15:58.108Z,6.22
2023-05-24T05:18:41.914Z,4.60
2023-05-24T05:21:14.749Z,6.12
2023-05-24T05:23:58.832Z,6.67
2023-05-24T05:26:32.409Z,4.42
2023-05-24T05:29:14.758Z,5.87
2023-05-24T05:31:48.206Z,5.10
2023-05-24T05:34:32.533Z,3.67
2023-05-24T05:37:05.390Z,4.30
2023-05-24T05:39:49.615Z,3.80
2023-05-24T05:42:22.541Z,3.87
2023-05-24T05:45:07.202Z,3.40
2023-05-24T05:47:40.740Z,3.72
2023-05-24T05:50:26.093Z,4.50
2023-05-24T05:52:58.713Z,4.33
2023-05-24T05:55:40.988Z,3.47
2023-05-24T05:58:13.901Z,4.03
2023-05-24T06:00:59.376Z,3.70
2023-05-24T06:03:32.216Z,5.10
2023-05-24T06:06:14.376Z,3.98
2023-05-24T06:08:47.371Z,4.67
2023-05-24T06:11:29.569Z,4.08
2023-05-24T06:14:02.949Z,4.80
2023-05-24T06:16:54.687Z,3.95
2023-05-24T06:19:27.677Z,5.08
2023-05-24T06:22:11.502Z,4.62
2023-05-24T06:24:44.440Z,3.77
2023-05-24T06:27:28.743Z,4.05
2023-05-24T06:30:01.532Z,4.95
2023-05-24T06:32:46.268Z,4.28
2023-05-24T06:35:19.628Z,4.35
2023-05-24T06:38:23.406Z,6.35
2023-05-24T06:40:56.158Z,4.97
2023-05-24T06:43:38.873Z,4.45
2023-05-24T06:46:11.546Z,4.47
2023-05-24T06:48:56.293Z,3.80
2023-05-24T06:51:29.343Z,4.35
2023-05-24T06:54:13.547Z,4.20
2023-05-24T06:56:46.278Z,4.08
2023-05-24T06:59:29.989Z,4.33
2023-05-24T07:02:14.193Z,4.33
2023-05-24T07:04:47.893Z,4.20
2023-05-24T07:07:32.654Z,4.45
2023-05-24T07:10:06.370Z,4.28
2023-05-24T07:12:49.994Z,4.67
2023-05-24T07:15:23.014Z,4.53
2023-05-24T07:18:05.718Z,3.58
2023-05-24T07:20:38.744Z,3.60
2023-05-24T07:23:22.830Z,4.85
2023-05-24T07:25:55.495Z,3.98
2023-05-24T07:28:28.217Z,4.17
2023-05-24T07:31:12.021Z,3.20
2023-05-24T07:33:44.796Z,3.45
2023-05-24T07:36:31.585Z,3.52
2023-05-24T07:39:06.300Z,3.60
2023-05-24T07:41:51.188Z,3.40
2023-05-24T07:44:24.316Z,4.17
2023-05-24T07:47:07.023Z,4.03
2023-05-24T07:49:39.981Z,4.03
2023-05-24T07:52:24.596Z,3.40
2023-05-24T07:54:57.287Z,3.22
2023-05-24T07:57:41.241Z,4.33
2023-05-24T08:00:17.444Z,4.40
2023-05-24T08:03:01.973Z,4.22
2023-05-24T08:05:46.333Z,4.67
2023-05-24T08:08:19.729Z,3.70
2023-05-24T08:11:03.688Z,5.70
2023-05-24T08:13:36.592Z,4.47
2023-05-24T08:16:19.728Z,5.62
2023-05-24T08:18:54.920Z,5.22
2023-05-24T08:21:38.505Z,4.53
2023-05-24T08:24:11.928Z,5.10
2023-05-24T08:26:55.897Z,4.62
2023-05-24T08:29:28.815Z,4.90
2023-05-24T08:32:12.713Z,4.67
2023-05-24T08:35:06.726Z,4.60
2023-05-24T08:37:32.830Z,5.85
2023-05-24T08:40:16.733Z,4.40
2023-05-24T08:43:03.187Z,5.17
2023-05-24T08:45:38.752Z,4.47
2023-05-24T08:48:25.176Z,3.80
2023-05-24T08:50:59.627Z,3.90
2023-05-24T08:53:52.017Z,6.60
2023-05-24T08:56:27.168Z,4.55
2023-05-24T08:59:13.182Z,4.92
2023-05-24T09:01:47.924Z,3.60
2023-05-24T09:04:32.280Z,3.70
2023-05-24T09:07:18.292Z,5.92
2023-05-24T09:10:07.727Z,6.22
2023-05-24T09:12:59.518Z,2.98
2023-05-24T09:15:32.809Z,3.50
2023-05-24T09:18:17.336Z,3.80
2023-05-24T09:20:50.161Z,3.83
2023-05-24T09:23:34.931Z,4.12
2023-05-24T09:26:12.032Z,3.40
2023-05-24T09:28:58.089Z,3.47
2023-05-24T09:31:38.288Z,3.30
2023-05-24T09:34:23.061Z,4.22
2023-05-24T09:36:56.538Z,4.33
2023-05-24T09:39:42.362Z,4.75
2023-05-24T09:42:21.266Z,4.42
2023-05-24T09:45:09.679Z,4.83
2023-05-24T09:47:54.745Z,3.87
2023-05-24T09:50:27.970Z,5.80
2023-05-24T09:53:13.119Z,4.28
2023-05-24T09:55:46.931Z,4.10
2023-05-24T09:58:33.771Z,3.80
2023-05-24T10:01:08.827Z,4.30
2023-05-24T10:03:57.992Z,4.30
2023-05-24T10:06:45.416Z,5.15
2023-05-24T10:09:34.182Z,4.60
2023-05-24T10:12:09.405Z,4.42
2023-05-24T10:14:53.523Z,4.42
2023-05-24T10:17:27.759Z,3.62
2023-05-24T10:20:12.487Z,3.72
2023-05-24T10:22:47.345Z,6.37
2023-05-24T10:25:30.730Z,4.78
2023-05-24T10:28:06.649Z,4.03
2023-05-24T10:31:03.380Z,4.25
2023-05-24T10:33:49.097Z,3.58
2023-05-24T10:36:23.060Z,4.37
2023-05-24T10:39:08.533Z,3.52
2023-05-24T10:41:42.513Z,4.30
2023-05-24T10:44:29.375Z,7.45
2023-05-24T10:47:13.455Z,4.97
2023-05-24T10:50:02.467Z,3.92
2023-05-24T10:52:47.879Z,4.67
2023-05-24T10:55:22.081Z,3.80
2023-05-24T10:58:07.315Z,3.30
2023-05-24T11:00:53.455Z,3.42
2023-05-24T11:03:26.733Z,3.83
2023-05-24T11:06:11.694Z,5.85
2023-05-24T11:08:45.166Z,3.45
2023-05-24T11:11:32.175Z,3.75
2023-05-24T11:14:04.516Z,3.95
2023-05-24T11:16:52.111Z,3.45
2023-05-24T11:19:28.393Z,3.00
2023-05-24T11:22:13.780Z,3.80
2023-05-24T11:27:18.495Z,3.35
2023-05-24T11:30:02.369Z,3.10
2023-05-24T11:32:35.727Z,3.62
2023-05-24T11:35:22.496Z,3.12
2023-05-24T11:37:55.428Z,2.80
2023-05-24T11:40:41.056Z,3.50
2023-05-24T11:43:24.771Z,2.85
2023-05-24T11:45:58.066Z,3.40
2023-05-24T11:48:42.449Z,3.87
2023-05-24T11:51:15.422Z,3.80
2023-05-24T11:54:01.302Z,4.08
2023-05-24T11:56:34.471Z,4.50
2023-05-24T11:59:29.948Z,4.28
2023-05-24T12:02:06.967Z,4.05
2023-05-24T12:04:50.931Z,5.22
2023-05-24T12:07:25.545Z,3.90
2023-05-24T12:10:10.797Z,4.70
2023-05-24T12:12:46.802Z,3.87
2023-05-24T12:15:29.010Z,4.30
2023-05-24T12:18:02.141Z,4.45
2023-05-24T12:20:51.163Z,5.50
2023-05-24T12:23:27.646Z,3.92
2023-05-24T12:26:15.070Z,4.58
2023-05-24T12:28:58.935Z,5.20
2023-05-24T12:31:31.629Z,3.55
2023-05-24T12:34:22.853Z,3.83
2023-05-24T12:36:57.408Z,3.50
2023-05-24T12:39:44.496Z,3.62
2023-05-24T12:44:50.989Z,3.87
2023-05-24T12:47:33.624Z,3.98
2023-05-24T12:50:06.684Z,4.83
2023-05-24T12:52:55.232Z,4.28
2023-05-24T12:55:39.356Z,3.83
2023-05-24T12:58:13.591Z,4.10
2023-05-24T13:00:57.700Z,5.42
2023-05-24T13:03:46.332Z,4.20
2023-05-24T13:06:19.360Z,4.50
2023-05-24T13:09:02.146Z,4.92
2023-05-24T13:11:34.818Z,4.37
2023-05-24T13:14:20.064Z,3.50
2023-05-24T13:16:53.166Z,3.80
2023-05-24T13:19:36.979Z,3.75
2023-05-24T13:22:09.861Z,4.12
2023-05-24T13:24:53.634Z,4.28
2023-05-24T13:30:01.295Z,3.83
2023-05-24T13:32:43.403Z,5.00
2023-05-24T13:35:16.725Z,3.30
2023-05-24T13:38:02.624Z,4.75
2023-05-24T13:40:35.466Z,4.83
2023-05-24T13:43:19.454Z,3.40
2023-05-24T13:45:52.669Z,4.12
2023-05-24T13:48:35.084Z,3.77
2023-05-24T13:51:07.705Z,4.37
2023-05-24T13:53:52.252Z,4.90
2023-05-24T13:56:37.370Z,5.37
2023-05-24T13:59:11.044Z,4.08
2023-05-24T14:01:54.826Z,4.90
2023-05-24T14:04:38.570Z,4.70
2023-05-24T14:07:23.350Z,5.00
2023-05-24T14:09:57.184Z,6.35
2023-05-24T14:12:30.278Z,5.42
2023-05-24T14:15:18.518Z,6.00
2023-05-24T14:17:51.620Z,5.00
2023-05-24T14:20:34.413Z,5.35
2023-05-24T14:23:10.744Z,4.80
2023-05-24T14:25:55.061Z,4.78
2023-05-24T14:28:27.827Z,5.20
2023-05-24T14:31:11.741Z,4.20
2023-05-24T14:33:44.917Z,3.70
2023-05-24T14:36:26.992Z,3.85
2023-05-24T14:38:59.716Z,5.28
2023-05-24T14:41:43.670Z,4.37
2023-05-24T14:44:16.507Z,3.42
2023-05-24T14:46:59.231Z,4.90
2023-05-24T14:49:31.838Z,3.02
2023-05-24T14:52:14.078Z,3.10
2023-05-24T14:54:46.966Z,3.50
2023-05-24T14:57:31.737Z,3.20
2023-05-24T15:00:05.237Z,3.30
2023-05-24T15:02:49.733Z,2.90
2023-05-24T15:05:22.583Z,3.20
2023-05-24T15:08:06.031Z,2.95
2023-05-24T15:10:40.926Z,3.25
2023-05-24T15:13:26.290Z,3.33
2023-05-24T15:16:00.604Z,2.10
2023-05-24T15:18:45.974Z,2.42
2023-05-24T15:21:30.114Z,2.92
2023-05-24T15:24:02.685Z,2.27
2023-05-24T15:26:47.549Z,2.47
2023-05-24T15:29:20.409Z,2.40
2023-05-24T15:32:02.618Z,2.60
2023-05-24T15:34:46.462Z,3.50
2023-05-24T15:37:21.000Z,5.80
2023-05-24T15:40:08.125Z,4.03
2023-05-24T15:42:41.332Z,5.65
2023-05-24T15:45:25.046Z,3.02
2023-05-24T15:47:57.776Z,3.25
2023-05-24T15:51:22.129Z,2.42
2023-05-24T15:53:18.730Z,3.12
2023-05-24T15:56:04.808Z,3.30
2023-05-24T15:58:37.879Z,3.35
2023-05-24T16:01:21.818Z,2.20
2023-05-24T16:03:54.726Z,3.40
2023-05-24T16:06:39.240Z,3.12
2023-05-24T16:09:11.841Z,4.45
2023-05-24T16:11:54.048Z,3.58
2023-05-24T16:14:26.898Z,3.58
2023-05-24T16:17:10.705Z,4.62
2023-05-24T16:19:55.254Z,4.37
2023-05-24T16:22:28.424Z,5.53
2023-05-24T16:25:13.644Z,3.55
2023-05-24T16:27:46.448Z,3.80
2023-05-24T16:30:30.653Z,4.10
2023-05-24T16:33:03.806Z,2.65
2023-05-24T16:35:48.744Z,2.55
2023-05-24T16:38:22.132Z,3.72
2023-05-24T16:41:07.803Z,3.10
2023-05-24T16:43:50.041Z,3.87
2023-05-24T16:46:24.012Z,3.47
2023-05-24T16:49:08.481Z,3.77
2023-05-24T16:51:41.340Z,4.08
2023-05-24T16:54:23.625Z,4.58
2023-05-24T16:56:56.911Z,3.83
2023-05-24T16:59:42.666Z,5.37
2023-05-24T17:02:16.852Z,4.15
2023-05-24T17:05:00.522Z,4.03
2023-05-24T17:07:34.104Z,4.00
2023-05-24T17:10:17.997Z,3.90
2023-05-24T17:12:51.209Z,2.98
2023-05-24T17:15:36.874Z,4.43
2023-05-24T17:18:09.676Z,3.40
2023-05-24T17:20:52.071Z,2.83
2023-05-24T17:23:26.748Z,4.17
2023-05-24T17:26:11.779Z,3.60
2023-05-24T17:28:46.519Z,3.98
2023-05-24T17:31:30.701Z,3.55
2023-05-24T17:34:03.561Z,4.30
2023-05-24T17:36:47.365Z,3.15
2023-05-24T17:39:21.402Z,4.03
2023-05-24T17:42:07.668Z,4.17
2023-05-24T17:44:40.485Z,4.35
2023-05-24T17:47:24.744Z,4.50
2023-05-24T17:49:57.926Z,3.98
2023-05-24T17:52:41.606Z,3.92
2023-05-24T17:55:14.591Z,4.08
2023-05-24T17:58:00.166Z,4.10
2023-05-24T18:00:33.074Z,4.10
2023-05-24T18:03:15.488Z,3.50
2023-05-24T18:05:48.339Z,4.78
2023-05-24T18:08:32.807Z,4.85
2023-05-24T18:11:16.653Z,3.60
2023-05-24T18:13:49.670Z,4.35
2023-05-24T18:16:33.390Z,4.42
2023-05-24T18:19:06.059Z,3.90
2023-05-24T18:21:50.829Z,4.22
2023-05-24T18:24:23.559Z,4.30
2023-05-24T18:27:07.550Z,5.83
2023-05-24T18:29:40.142Z,3.98
2023-05-24T18:32:24.046Z,4.35
2023-05-24T18:34:57.227Z,5.08
2023-05-24T18:37:41.377Z,4.20
2023-05-24T18:40:18.108Z,3.20
2023-05-24T18:43:01.668Z,3.98
2023-05-24T18:45:34.182Z,6.08
2023-05-24T18:48:17.873Z,4.80
2023-05-24T18:50:51.130Z,5.50
2023-05-24T18:53:36.441Z,4.45
2023-05-24T18:56:09.046Z,4.67
2023-05-24T18:58:54.270Z,4.67
2023-05-24T19:01:28.366Z,4.10
2023-05-24T19:04:10.554Z,5.03
2023-05-24T19:06:43.558Z,4.67
2023-05-24T19:09:26.356Z,5.72
2023-05-24T19:12:14.997Z,4.55
2023-05-24T19:14:47.729Z,5.42
2023-05-24T19:17:32.840Z,4.78
2023-05-24T19:20:05.554Z,3.80
2023-05-24T19:22:49.196Z,4.83
2023-05-24T19:25:21.932Z,5.37
2023-05-24T19:28:07.174Z,4.35
2023-05-24T19:30:40.003Z,3.67
2023-05-24T19:33:24.111Z,6.80
2023-05-24T19:35:56.734Z,4.17
2023-05-24T19:38:38.791Z,5.15
2023-05-24T19:41:21.040Z,4.95
2023-05-24T19:44:04.665Z,5.10
2023-05-24T19:46:37.720Z,4.50
2023-05-24T19:49:21.539Z,4.50
2023-05-24T19:51:54.092Z,5.55
2023-05-24T19:54:36.198Z,5.17
2023-05-24T19:57:11.366Z,4.85
2023-05-24T19:59:53.371Z,4.78
2023-05-24T20:02:36.994Z,6.00
2023-05-24T20:05:09.766Z,5.47
2023-05-24T20:07:53.951Z,5.53
2023-05-24T20:10:28.304Z,6.90
2023-05-24T20:13:12.835Z,7.22
2023-05-24T20:15:56.498Z,6.85
2023-05-24T20:18:29.187Z,6.85
2023-05-24T20:21:14.952Z,5.10
2023-05-24T20:23:58.730Z,6.08
2023-05-24T20:26:33.418Z,6.35
2023-05-24T20:29:18.450Z,6.25
2023-05-24T20:31:51.423Z,6.37
2023-05-24T20:34:36.129Z,8.13
2023-05-24T20:37:09.446Z,7.42
2023-05-24T20:39:53.322Z,6.65
2023-05-24T20:42:26.585Z,8.78
2023-05-24T20:45:10.857Z,7.05
2023-05-24T20:47:53.059Z,6.62
2023-05-24T20:50:25.959Z,6.97
2023-05-24T20:53:09.826Z,7.03
2023-05-24T20:55:42.667Z,7.55
2023-05-24T20:58:27.894Z,7.45
2023-05-24T21:01:00.485Z,7.28
2023-05-24T21:03:42.839Z,7.15
2023-05-24T21:06:15.816Z,7.42
2023-05-24T21:09:01.269Z,7.20
2023-05-24T21:14:06.063Z,7.90
2023-05-24T21:16:48.358Z,6.55
2023-05-24T21:19:21.012Z,7.42
2023-05-24T21:22:03.038Z,7.25
2023-05-24T21:24:35.986Z,7.85
2023-05-24T21:27:20.352Z,6.45
2023-05-24T21:30:04.541Z,7.50
2023-05-24T21:32:37.309Z,7.47
2023-05-24T21:35:21.436Z,8.88
2023-05-24T21:37:54.356Z,7.28
2023-05-24T21:40:26.985Z,8.28
2023-05-24T21:43:12.078Z,7.25
2023-05-24T21:45:45.092Z,7.47
2023-05-24T21:48:17.952Z,7.15
2023-05-24T21:51:00.447Z,7.47
2023-05-24T21:53:44.205Z,7.28
2023-05-24T21:56:17.038Z,8.05
2023-05-24T21:59:00.677Z,11.12
2023-05-24T22:01:33.381Z,7.00
2023-05-24T22:04:17.651Z,7.28
2023-05-24T22:07:01.231Z,7.45
2023-05-24T22:09:44.748Z,6.72
2023-05-24T22:12:17.686Z,6.30
2023-05-24T22:14:50.620Z,7.00
2023-05-24T22:17:24.827Z,6.87
2023-05-24T22:20:07.711Z,7.40
2023-05-24T22:22:53.850Z,6.55
2023-05-24T22:25:26.904Z,6.25
2023-05-24T22:28:10.584Z,6.40
2023-05-24T22:30:43.129Z,6.87
2023-05-24T22:33:25.265Z,7.08
2023-05-24T22:35:57.909Z,7.20
2023-05-24T22:38:41.747Z,7.30
2023-05-24T22:41:15.128Z,6.80
2023-05-24T22:43:59.872Z,6.97
2023-05-24T22:46:32.707Z,7.70
2023-05-24T22:49:18.148Z,7.00
2023-05-24T22:51:52.985Z,7.25
2023-05-24T22:54:37.005Z,9.53
2023-05-24T22:57:10.912Z,7.67
2023-05-24T22:59:54.822Z,7.45
2023-05-24T23:02:29.419Z,7.17
2023-05-24T23:05:11.749Z,7.55
2023-05-24T23:07:44.518Z,7.22
2023-05-24T23:10:26.898Z,8.18
2023-05-24T23:13:00.169Z,7.65
2023-05-24T23:15:44.079Z,7.25
2023-05-24T23:18:18.436Z,8.18
2023-05-24T23:21:03.749Z,7.87
2023-05-24T23:23:37.890Z,7.45
2023-05-24T23:26:23.242Z,8.30
2023-05-24T23:28:56.077Z,7.95
2023-05-24T23:31:28.599Z,7.72
2023-05-24T23:34:13.005Z,7.90
2023-05-24T23:36:58.070Z,8.38
2023-05-24T23:39:30.681Z,8.23
2023-05-24T23:42:14.424Z,8.18
2023-05-24T23:44:47.146Z,8.03
2023-05-24T23:47:31.270Z,7.55
2023-05-24T23:50:03.847Z,8.45
2023-05-24T23:52:49.583Z,8.38
2023-05-24T23:55:23.265Z,8.00
2023-05-24T23:58:08.040Z,8.60
